Ada, West Virginia
Current Conditions -  °F | °C
As of 1:52 PM on Monday 22 Dec 2014 (Local Time) from KBLF Reporting Station
Overcast Overcast  
Wind Chill: 38°   Ceiling: 700
Heat Index: 41°   Visibility: 10mi
Dew Point: 34°   Wind: 5mph
Humidity: 76%   Direction: NA
Pressure: 29.97"   Gusts: NA
Location:  37.2994°N, 81.226°W
Report Text: KBLF 221852Z AUTO VRB04KT 10SM OVC007 05/01 A2997 RMK AO2 SLP154 T00500011
Loading
Personal Weather Stations






























Interactive Weather Map New forecast layout! Learn more

10-Day Weather Forecast

Advertisements
Track Severe Weather on mobile